sensor_id;sensor_type;location;lat;lon;timestamp;P1;durP1;ratioP1;P2;durP2;ratioP2
18905;SDS011;9585;51.018;4.282;2023-07-29T00:00:11;2.30;;;0.88;;
18905;SDS011;9585;51.018;4.282;2023-07-29T00:02:39;1.60;;;1.00;;
18905;SDS011;9585;51.018;4.282;2023-07-29T00:05:07;1.40;;;1.20;;
18905;SDS011;9585;51.018;4.282;2023-07-29T00:07:35;1.33;;;0.88;;
18905;SDS011;9585;51.018;4.282;2023-07-29T00:10:03;2.03;;;1.10;;
18905;SDS011;9585;51.018;4.282;2023-07-29T00:12:33;2.28;;;1.40;;
18905;SDS011;9585;51.018;4.282;2023-07-29T00:15:01;1.83;;;1.30;;
18905;SDS011;9585;51.018;4.282;2023-07-29T00:17:29;3.15;;;0.90;;
18905;SDS011;9585;51.018;4.282;2023-07-29T00:19:57;2.55;;;1.00;;
18905;SDS011;9585;51.018;4.282;2023-07-29T00:22:25;1.33;;;1.20;;
18905;SDS011;9585;51.018;4.282;2023-07-29T00:24:53;2.97;;;1.25;;
18905;SDS011;9585;51.018;4.282;2023-07-29T00:27:24;1.40;;;0.95;;
18905;SDS011;9585;51.018;4.282;2023-07-29T00:29:53;1.60;;;1.20;;
18905;SDS011;9585;51.018;4.282;2023-07-29T00:32:21;1.65;;;1.15;;
18905;SDS011;9585;51.018;4.282;2023-07-29T00:34:49;1.20;;;1.10;;
18905;SDS011;9585;51.018;4.282;2023-07-29T00:37:17;1.35;;;1.15;;
18905;SDS011;9585;51.018;4.282;2023-07-29T00:39:45;2.05;;;1.20;;
18905;SDS011;9585;51.018;4.282;2023-07-29T00:42:16;1.90;;;1.20;;
18905;SDS011;9585;51.018;4.282;2023-07-29T00:44:50;1.77;;;1.17;;
18905;SDS011;9585;51.018;4.282;2023-07-29T00:47:20;1.48;;;1.00;;
18905;SDS011;9585;51.018;4.282;2023-07-29T00:49:50;1.30;;;1.10;;
18905;SDS011;9585;51.018;4.282;2023-07-29T00:52:19;1.58;;;1.13;;
18905;SDS011;9585;51.018;4.282;2023-07-29T00:54:46;1.30;;;1.10;;
18905;SDS011;9585;51.018;4.282;2023-07-29T00:57:14;1.40;;;1.30;;
18905;SDS011;9585;51.018;4.282;2023-07-29T00:59:43;1.20;;;1.10;;
18905;SDS011;9585;51.018;4.282;2023-07-29T01:02:14;2.30;;;1.10;;
18905;SDS011;9585;51.018;4.282;2023-07-29T01:04:43;1.30;;;1.10;;
18905;SDS011;9585;51.018;4.282;2023-07-29T01:07:13;1.88;;;1.10;;
18905;SDS011;9585;51.018;4.282;2023-07-29T01:09:48;3.65;;;1.40;;
18905;SDS011;9585;51.018;4.282;2023-07-29T01:12:25;1.35;;;1.15;;
18905;SDS011;9585;51.018;4.282;2023-07-29T01:15:03;2.70;;;1.23;;
18905;SDS011;9585;51.018;4.282;2023-07-29T01:17:39;1.70;;;1.20;;
18905;SDS011;9585;51.018;4.282;2023-07-29T01:20:15;1.27;;;1.17;;
18905;SDS011;9585;51.018;4.282;2023-07-29T01:22:45;1.70;;;1.45;;
18905;SDS011;9585;51.018;4.282;2023-07-29T01:25:15;2.28;;;1.45;;
18905;SDS011;9585;51.018;4.282;2023-07-29T01:27:43;1.55;;;1.40;;
18905;SDS011;9585;51.018;4.282;2023-07-29T01:30:12;1.35;;;1.08;;
18905;SDS011;9585;51.018;4.282;2023-07-29T01:32:41;1.05;;;0.98;;
18905;SDS011;9585;51.018;4.282;2023-07-29T01:35:15;1.23;;;1.13;;
18905;SDS011;9585;51.018;4.282;2023-07-29T01:37:51;1.55;;;1.30;;
18905;SDS011;9585;51.018;4.282;2023-07-29T01:40:23;1.60;;;1.40;;
18905;SDS011;9585;51.018;4.282;2023-07-29T01:42:53;1.98;;;1.17;;
18905;SDS011;9585;51.018;4.282;2023-07-29T01:45:22;1.23;;;1.10;;
18905;SDS011;9585;51.018;4.282;2023-07-29T01:47:51;1.73;;;1.20;;
18905;SDS011;9585;51.018;4.282;2023-07-29T01:50:18;1.52;;;1.30;;
18905;SDS011;9585;51.018;4.282;2023-07-29T01:52:46;1.52;;;1.27;;
18905;SDS011;9585;51.018;4.282;2023-07-29T01:55:14;1.27;;;1.17;;
18905;SDS011;9585;51.018;4.282;2023-07-29T01:57:43;1.70;;;1.20;;
18905;SDS011;9585;51.018;4.282;2023-07-29T02:00:13;1.60;;;1.30;;
18905;SDS011;9585;51.018;4.282;2023-07-29T02:02:41;1.90;;;1.60;;
18905;SDS011;9585;51.018;4.282;2023-07-29T02:05:08;1.67;;;1.42;;
18905;SDS011;9585;51.018;4.282;2023-07-29T02:07:36;1.55;;;1.40;;
18905;SDS011;9585;51.018;4.282;2023-07-29T02:10:04;1.55;;;1.45;;
18905;SDS011;9585;51.018;4.282;2023-07-29T02:12:32;1.80;;;1.50;;
18905;SDS011;9585;51.018;4.282;2023-07-29T02:15:02;1.35;;;1.25;;
18905;SDS011;9585;51.018;4.282;2023-07-29T02:17:30;1.65;;;1.38;;
18905;SDS011;9585;51.018;4.282;2023-07-29T02:19:58;2.40;;;1.63;;
18905;SDS011;9585;51.018;4.282;2023-07-29T02:22:25;1.98;;;1.60;;
18905;SDS011;9585;51.018;4.282;2023-07-29T02:24:53;1.90;;;1.38;;
18905;SDS011;9585;51.018;4.282;2023-07-29T02:27:23;2.25;;;1.50;;
18905;SDS011;9585;51.018;4.282;2023-07-29T02:29:52;1.70;;;1.40;;
18905;SDS011;9585;51.018;4.282;2023-07-29T02:32:21;1.45;;;1.23;;
18905;SDS011;9585;51.018;4.282;2023-07-29T02:34:49;2.15;;;1.40;;
18905;SDS011;9585;51.018;4.282;2023-07-29T02:37:16;3.03;;;1.67;;
18905;SDS011;9585;51.018;4.282;2023-07-29T02:39:44;2.13;;;1.35;;
18905;SDS011;9585;51.018;4.282;2023-07-29T02:42:12;2.25;;;1.60;;
18905;SDS011;9585;51.018;4.282;2023-07-29T02:44:40;2.03;;;1.83;;
18905;SDS011;9585;51.018;4.282;2023-07-29T02:47:07;1.80;;;1.60;;
18905;SDS011;9585;51.018;4.282;2023-07-29T02:49:36;2.20;;;1.55;;
18905;SDS011;9585;51.018;4.282;2023-07-29T02:52:04;1.85;;;1.45;;
18905;SDS011;9585;51.018;4.282;2023-07-29T02:54:31;1.83;;;1.42;;
18905;SDS011;9585;51.018;4.282;2023-07-29T02:56:59;3.78;;;1.65;;
18905;SDS011;9585;51.018;4.282;2023-07-29T02:59:27;2.50;;;1.80;;
18905;SDS011;9585;51.018;4.282;2023-07-29T03:01:54;2.10;;;1.77;;
18905;SDS011;9585;51.018;4.282;2023-07-29T03:04:22;2.95;;;1.67;;
18905;SDS011;9585;51.018;4.282;2023-07-29T03:06:51;1.75;;;1.40;;
18905;SDS011;9585;51.018;4.282;2023-07-29T03:09:18;1.65;;;1.55;;
18905;SDS011;9585;51.018;4.282;2023-07-29T03:11:46;1.20;;;1.10;;
18905;SDS011;9585;51.018;4.282;2023-07-29T03:14:13;1.67;;;1.17;;
18905;SDS011;9585;51.018;4.282;2023-07-29T03:16:43;2.15;;;1.42;;
18905;SDS011;9585;51.018;4.282;2023-07-29T03:19:11;2.45;;;1.80;;
18905;SDS011;9585;51.018;4.282;2023-07-29T03:21:39;2.42;;;1.55;;
18905;SDS011;9585;51.018;4.282;2023-07-29T03:24:08;2.38;;;1.60;;
18905;SDS011;9585;51.018;4.282;2023-07-29T03:26:36;2.25;;;1.40;;
18905;SDS011;9585;51.018;4.282;2023-07-29T03:29:03;2.17;;;1.50;;
18905;SDS011;9585;51.018;4.282;2023-07-29T03:31:31;1.88;;;1.30;;
18905;SDS011;9585;51.018;4.282;2023-07-29T03:33:58;2.45;;;1.30;;
18905;SDS011;9585;51.018;4.282;2023-07-29T03:36:26;1.65;;;1.55;;
18905;SDS011;9585;51.018;4.282;2023-07-29T03:38:56;2.00;;;1.60;;
18905;SDS011;9585;51.018;4.282;2023-07-29T03:41:29;1.38;;;1.27;;
18905;SDS011;9585;51.018;4.282;2023-07-29T03:43:58;2.15;;;1.67;;
18905;SDS011;9585;51.018;4.282;2023-07-29T03:46:25;1.65;;;1.20;;
18905;SDS011;9585;51.018;4.282;2023-07-29T03:48:53;4.40;;;1.77;;
18905;SDS011;9585;51.018;4.282;2023-07-29T03:51:20;1.98;;;1.50;;
18905;SDS011;9585;51.018;4.282;2023-07-29T03:53:57;1.88;;;1.63;;
18905;SDS011;9585;51.018;4.282;2023-07-29T03:56:25;2.00;;;1.45;;
18905;SDS011;9585;51.018;4.282;2023-07-29T03:59:01;2.35;;;1.60;;
18905;SDS011;9585;51.018;4.282;2023-07-29T04:01:29;3.05;;;1.60;;
18905;SDS011;9585;51.018;4.282;2023-07-29T04:03:57;1.45;;;1.30;;
18905;SDS011;9585;51.018;4.282;2023-07-29T04:06:25;2.78;;;1.65;;
18905;SDS011;9585;51.018;4.282;2023-07-29T04:08:54;2.30;;;1.52;;
18905;SDS011;9585;51.018;4.282;2023-07-29T04:11:27;2.40;;;1.50;;
18905;SDS011;9585;51.018;4.282;2023-07-29T04:13:55;1.63;;;1.52;;
18905;SDS011;9585;51.018;4.282;2023-07-29T04:16:24;1.48;;;1.35;;
18905;SDS011;9585;51.018;4.282;2023-07-29T04:18:52;1.95;;;1.40;;
18905;SDS011;9585;51.018;4.282;2023-07-29T04:21:20;2.58;;;1.65;;
18905;SDS011;9585;51.018;4.282;2023-07-29T04:23:48;2.92;;;1.60;;
18905;SDS011;9585;51.018;4.282;2023-07-29T04:26:19;3.05;;;1.60;;
18905;SDS011;9585;51.018;4.282;2023-07-29T04:28:48;1.95;;;1.75;;
18905;SDS011;9585;51.018;4.282;2023-07-29T04:31:16;2.72;;;1.80;;
18905;SDS011;9585;51.018;4.282;2023-07-29T04:33:44;4.00;;;1.63;;
18905;SDS011;9585;51.018;4.282;2023-07-29T04:36:12;1.67;;;1.55;;
18905;SDS011;9585;51.018;4.282;2023-07-29T04:38:41;2.45;;;1.70;;
18905;SDS011;9585;51.018;4.282;2023-07-29T04:41:09;2.75;;;1.92;;
18905;SDS011;9585;51.018;4.282;2023-07-29T04:43:37;2.33;;;1.80;;
18905;SDS011;9585;51.018;4.282;2023-07-29T04:46:08;2.60;;;1.80;;
18905;SDS011;9585;51.018;4.282;2023-07-29T04:48:36;2.75;;;1.80;;
18905;SDS011;9585;51.018;4.282;2023-07-29T04:51:04;3.35;;;1.95;;
18905;SDS011;9585;51.018;4.282;2023-07-29T04:53:32;3.35;;;2.10;;
18905;SDS011;9585;51.018;4.282;2023-07-29T04:56:02;2.70;;;1.80;;
18905;SDS011;9585;51.018;4.282;2023-07-29T04:58:30;2.33;;;1.95;;
18905;SDS011;9585;51.018;4.282;2023-07-29T05:01:00;2.00;;;1.73;;
18905;SDS011;9585;51.018;4.282;2023-07-29T05:03:30;2.35;;;1.73;;
18905;SDS011;9585;51.018;4.282;2023-07-29T05:05:58;1.92;;;1.80;;
18905;SDS011;9585;51.018;4.282;2023-07-29T05:08:26;4.38;;;2.30;;
18905;SDS011;9585;51.018;4.282;2023-07-29T05:10:57;2.30;;;2.10;;
18905;SDS011;9585;51.018;4.282;2023-07-29T05:13:25;3.60;;;2.08;;
18905;SDS011;9585;51.018;4.282;2023-07-29T05:15:54;3.25;;;1.83;;
18905;SDS011;9585;51.018;4.282;2023-07-29T05:18:22;3.22;;;1.83;;
18905;SDS011;9585;51.018;4.282;2023-07-29T05:20:54;2.17;;;1.90;;
18905;SDS011;9585;51.018;4.282;2023-07-29T05:23:25;2.38;;;1.58;;
18905;SDS011;9585;51.018;4.282;2023-07-29T05:25:53;2.35;;;2.00;;
18905;SDS011;9585;51.018;4.282;2023-07-29T05:28:24;2.70;;;1.63;;
18905;SDS011;9585;51.018;4.282;2023-07-29T05:30:52;2.10;;;1.70;;
18905;SDS011;9585;51.018;4.282;2023-07-29T05:33:33;2.15;;;1.73;;
18905;SDS011;9585;51.018;4.282;2023-07-29T05:36:03;2.70;;;1.75;;
18905;SDS011;9585;51.018;4.282;2023-07-29T05:38:33;3.67;;;1.80;;
18905;SDS011;9585;51.018;4.282;2023-07-29T05:41:01;2.33;;;1.60;;
18905;SDS011;9585;51.018;4.282;2023-07-29T05:43:31;1.92;;;1.30;;
18905;SDS011;9585;51.018;4.282;2023-07-29T05:45:59;2.55;;;1.45;;
18905;SDS011;9585;51.018;4.282;2023-07-29T05:48:30;1.95;;;1.60;;
18905;SDS011;9585;51.018;4.282;2023-07-29T05:50:59;2.22;;;1.60;;
18905;SDS011;9585;51.018;4.282;2023-07-29T05:53:28;2.47;;;1.15;;
18905;SDS011;9585;51.018;4.282;2023-07-29T05:55:56;1.90;;;1.23;;
18905;SDS011;9585;51.018;4.282;2023-07-29T05:58:25;1.17;;;1.08;;
18905;SDS011;9585;51.018;4.282;2023-07-29T06:00:52;2.05;;;1.27;;
18905;SDS011;9585;51.018;4.282;2023-07-29T06:03:22;1.38;;;1.05;;
18905;SDS011;9585;51.018;4.282;2023-07-29T06:05:50;1.08;;;0.98;;
18905;SDS011;9585;51.018;4.282;2023-07-29T06:08:18;2.15;;;1.00;;
18905;SDS011;9585;51.018;4.282;2023-07-29T06:10:51;3.55;;;1.10;;
18905;SDS011;9585;51.018;4.282;2023-07-29T06:13:19;1.27;;;0.80;;
18905;SDS011;9585;51.018;4.282;2023-07-29T06:15:47;1.77;;;1.00;;
18905;SDS011;9585;51.018;4.282;2023-07-29T06:18:15;1.30;;;1.00;;
18905;SDS011;9585;51.018;4.282;2023-07-29T06:20:43;1.67;;;1.08;;
18905;SDS011;9585;51.018;4.282;2023-07-29T06:23:11;1.25;;;0.88;;
18905;SDS011;9585;51.018;4.282;2023-07-29T06:25:39;1.45;;;0.85;;
18905;SDS011;9585;51.018;4.282;2023-07-29T06:28:12;1.50;;;0.90;;
18905;SDS011;9585;51.018;4.282;2023-07-29T06:30:42;1.80;;;0.80;;
18905;SDS011;9585;51.018;4.282;2023-07-29T06:33:10;1.63;;;0.88;;
18905;SDS011;9585;51.018;4.282;2023-07-29T06:35:38;2.33;;;0.98;;
18905;SDS011;9585;51.018;4.282;2023-07-29T06:38:07;1.25;;;0.80;;
18905;SDS011;9585;51.018;4.282;2023-07-29T06:40:36;1.75;;;1.00;;
18905;SDS011;9585;51.018;4.282;2023-07-29T06:43:08;2.47;;;0.98;;
18905;SDS011;9585;51.018;4.282;2023-07-29T06:45:37;1.08;;;0.90;;
18905;SDS011;9585;51.018;4.282;2023-07-29T06:48:05;1.23;;;0.77;;
18905;SDS011;9585;51.018;4.282;2023-07-29T06:50:49;0.63;;;0.63;;
18905;SDS011;9585;51.018;4.282;2023-07-29T06:53:26;1.45;;;0.73;;
18905;SDS011;9585;51.018;4.282;2023-07-29T06:55:57;1.35;;;0.70;;
18905;SDS011;9585;51.018;4.282;2023-07-29T06:58:27;1.05;;;0.80;;
18905;SDS011;9585;51.018;4.282;2023-07-29T07:00:55;1.58;;;0.80;;
18905;SDS011;9585;51.018;4.282;2023-07-29T07:03:23;1.35;;;0.80;;
18905;SDS011;9585;51.018;4.282;2023-07-29T07:06:01;0.98;;;0.85;;
18905;SDS011;9585;51.018;4.282;2023-07-29T07:08:34;0.77;;;0.75;;
18905;SDS011;9585;51.018;4.282;2023-07-29T07:11:04;2.05;;;1.10;;
18905;SDS011;9585;51.018;4.282;2023-07-29T07:13:34;1.35;;;1.00;;
18905;SDS011;9585;51.018;4.282;2023-07-29T07:16:02;1.45;;;1.15;;
18905;SDS011;9585;51.018;4.282;2023-07-29T07:18:30;1.05;;;0.90;;
18905;SDS011;9585;51.018;4.282;2023-07-29T07:20:58;1.20;;;1.00;;
18905;SDS011;9585;51.018;4.282;2023-07-29T07:23:26;1.83;;;1.20;;
18905;SDS011;9585;51.018;4.282;2023-07-29T07:25:54;1.20;;;0.93;;
18905;SDS011;9585;51.018;4.282;2023-07-29T07:28:22;1.00;;;0.90;;
18905;SDS011;9585;51.018;4.282;2023-07-29T07:30:52;1.70;;;0.98;;
18905;SDS011;9585;51.018;4.282;2023-07-29T07:33:26;1.42;;;1.15;;
18905;SDS011;9585;51.018;4.282;2023-07-29T07:35:54;1.17;;;1.00;;
18905;SDS011;9585;51.018;4.282;2023-07-29T07:38:24;0.77;;;0.68;;
18905;SDS011;9585;51.018;4.282;2023-07-29T07:40:52;1.83;;;1.15;;
18905;SDS011;9585;51.018;4.282;2023-07-29T07:43:22;0.85;;;0.80;;
18905;SDS011;9585;51.018;4.282;2023-07-29T07:45:56;1.05;;;0.95;;
18905;SDS011;9585;51.018;4.282;2023-07-29T07:48:25;2.25;;;1.15;;
18905;SDS011;9585;51.018;4.282;2023-07-29T07:50:53;1.98;;;0.98;;
18905;SDS011;9585;51.018;4.282;2023-07-29T07:53:21;1.40;;;1.08;;
18905;SDS011;9585;51.018;4.282;2023-07-29T07:55:51;2.45;;;1.52;;
18905;SDS011;9585;51.018;4.282;2023-07-29T07:58:19;1.10;;;1.00;;
18905;SDS011;9585;51.018;4.282;2023-07-29T08:00:48;1.48;;;1.10;;
18905;SDS011;9585;51.018;4.282;2023-07-29T08:03:19;1.98;;;1.10;;
18905;SDS011;9585;51.018;4.282;2023-07-29T08:05:48;1.45;;;0.90;;
18905;SDS011;9585;51.018;4.282;2023-07-29T08:08:23;0.80;;;0.80;;
18905;SDS011;9585;51.018;4.282;2023-07-29T08:10:52;1.08;;;0.90;;
18905;SDS011;9585;51.018;4.282;2023-07-29T08:13:23;2.05;;;0.82;;
18905;SDS011;9585;51.018;4.282;2023-07-29T08:15:56;0.82;;;0.82;;
18905;SDS011;9585;51.018;4.282;2023-07-29T08:18:25;1.65;;;1.00;;
18905;SDS011;9585;51.018;4.282;2023-07-29T08:20:53;1.92;;;0.70;;
18905;SDS011;9585;51.018;4.282;2023-07-29T08:23:24;1.83;;;0.95;;
18905;SDS011;9585;51.018;4.282;2023-07-29T08:25:53;1.10;;;0.80;;
18905;SDS011;9585;51.018;4.282;2023-07-29T08:28:26;1.13;;;1.00;;
18905;SDS011;9585;51.018;4.282;2023-07-29T08:30:55;2.72;;;0.93;;
18905;SDS011;9585;51.018;4.282;2023-07-29T08:33:25;0.82;;;0.60;;
18905;SDS011;9585;51.018;4.282;2023-07-29T08:35:54;0.75;;;0.70;;
18905;SDS011;9585;51.018;4.282;2023-07-29T08:38:22;1.70;;;0.80;;
18905;SDS011;9585;51.018;4.282;2023-07-29T08:40:54;1.23;;;0.70;;
18905;SDS011;9585;51.018;4.282;2023-07-29T08:43:32;2.05;;;0.85;;
18905;SDS011;9585;51.018;4.282;2023-07-29T08:46:05;1.73;;;0.88;;
18905;SDS011;9585;51.018;4.282;2023-07-29T08:48:41;1.35;;;0.70;;
18905;SDS011;9585;51.018;4.282;2023-07-29T08:51:11;0.90;;;0.68;;
18905;SDS011;9585;51.018;4.282;2023-07-29T08:53:40;1.85;;;0.80;;
18905;SDS011;9585;51.018;4.282;2023-07-29T08:56:10;2.13;;;0.93;;
18905;SDS011;9585;51.018;4.282;2023-07-29T08:58:42;1.75;;;0.85;;
18905;SDS011;9585;51.018;4.282;2023-07-29T09:01:10;2.65;;;1.13;;
18905;SDS011;9585;51.018;4.282;2023-07-29T09:03:41;1.00;;;0.85;;
18905;SDS011;9585;51.018;4.282;2023-07-29T09:06:11;1.05;;;0.93;;
18905;SDS011;9585;51.018;4.282;2023-07-29T09:08:40;1.83;;;1.05;;
18905;SDS011;9585;51.018;4.282;2023-07-29T09:11:08;1.17;;;0.90;;
18905;SDS011;9585;51.018;4.282;2023-07-29T09:13:36;2.13;;;1.02;;
18905;SDS011;9585;51.018;4.282;2023-07-29T09:16:05;1.35;;;1.25;;
18905;SDS011;9585;51.018;4.282;2023-07-29T09:18:33;1.15;;;1.00;;
18905;SDS011;9585;51.018;4.282;2023-07-29T09:21:03;1.70;;;1.13;;
18905;SDS011;9585;51.018;4.282;2023-07-29T09:23:38;1.67;;;1.40;;
18905;SDS011;9585;51.018;4.282;2023-07-29T09:26:07;1.63;;;1.45;;
18905;SDS011;9585;51.018;4.282;2023-07-29T09:28:35;2.22;;;1.35;;
18905;SDS011;9585;51.018;4.282;2023-07-29T09:31:07;2.08;;;1.20;;
18905;SDS011;9585;51.018;4.282;2023-07-29T09:33:47;1.55;;;1.20;;
18905;SDS011;9585;51.018;4.282;2023-07-29T09:36:17;1.50;;;1.38;;
18905;SDS011;9585;51.018;4.282;2023-07-29T09:38:50;1.92;;;1.30;;
18905;SDS011;9585;51.018;4.282;2023-07-29T09:41:22;1.30;;;1.20;;
18905;SDS011;9585;51.018;4.282;2023-07-29T09:43:58;1.65;;;1.20;;
18905;SDS011;9585;51.018;4.282;2023-07-29T09:46:31;1.60;;;1.23;;
18905;SDS011;9585;51.018;4.282;2023-07-29T09:49:02;1.20;;;1.10;;
18905;SDS011;9585;51.018;4.282;2023-07-29T09:51:32;2.67;;;1.40;;
18905;SDS011;9585;51.018;4.282;2023-07-29T09:54:05;3.15;;;1.40;;
18905;SDS011;9585;51.018;4.282;2023-07-29T09:56:39;2.67;;;1.25;;
18905;SDS011;9585;51.018;4.282;2023-07-29T09:59:11;1.58;;;1.30;;
18905;SDS011;9585;51.018;4.282;2023-07-29T10:01:41;2.58;;;1.10;;
18905;SDS011;9585;51.018;4.282;2023-07-29T10:04:09;1.55;;;1.25;;
18905;SDS011;9585;51.018;4.282;2023-07-29T10:06:43;1.40;;;1.30;;
18905;SDS011;9585;51.018;4.282;2023-07-29T10:09:12;3.03;;;1.00;;
18905;SDS011;9585;51.018;4.282;2023-07-29T10:11:46;1.83;;;1.50;;
18905;SDS011;9585;51.018;4.282;2023-07-29T10:14:17;1.33;;;1.10;;
18905;SDS011;9585;51.018;4.282;2023-07-29T10:16:49;1.75;;;1.10;;
18905;SDS011;9585;51.018;4.282;2023-07-29T10:19:21;1.20;;;1.10;;
18905;SDS011;9585;51.018;4.282;2023-07-29T10:21:58;1.30;;;1.20;;
18905;SDS011;9585;51.018;4.282;2023-07-29T10:24:29;2.30;;;1.20;;
18905;SDS011;9585;51.018;4.282;2023-07-29T10:27:00;1.63;;;1.15;;
18905;SDS011;9585;51.018;4.282;2023-07-29T10:29:31;1.75;;;1.20;;
18905;SDS011;9585;51.018;4.282;2023-07-29T10:32:12;2.00;;;1.30;;
18905;SDS011;9585;51.018;4.282;2023-07-29T10:34:41;2.03;;;1.38;;
18905;SDS011;9585;51.018;4.282;2023-07-29T10:37:11;1.70;;;1.33;;
18905;SDS011;9585;51.018;4.282;2023-07-29T10:39:40;2.33;;;1.30;;
18905;SDS011;9585;51.018;4.282;2023-07-29T10:42:22;1.92;;;1.27;;
18905;SDS011;9585;51.018;4.282;2023-07-29T10:44:52;1.42;;;1.30;;
18905;SDS011;9585;51.018;4.282;2023-07-29T10:47:21;1.75;;;1.30;;
18905;SDS011;9585;51.018;4.282;2023-07-29T10:49:52;3.28;;;1.27;;
18905;SDS011;9585;51.018;4.282;2023-07-29T10:52:30;1.58;;;1.30;;
18905;SDS011;9585;51.018;4.282;2023-07-29T10:55:29;1.20;;;1.10;;
18905;SDS011;9585;51.018;4.282;2023-07-29T10:58:06;1.75;;;1.40;;
18905;SDS011;9585;51.018;4.282;2023-07-29T11:00:43;1.35;;;1.25;;
18905;SDS011;9585;51.018;4.282;2023-07-29T11:03:13;1.60;;;1.50;;
18905;SDS011;9585;51.018;4.282;2023-07-29T11:05:44;1.20;;;1.10;;
18905;SDS011;9585;51.018;4.282;2023-07-29T11:08:26;2.30;;;1.30;;
18905;SDS011;9585;51.018;4.282;2023-07-29T11:11:00;1.30;;;1.20;;
18905;SDS011;9585;51.018;4.282;2023-07-29T11:13:31;2.78;;;1.60;;
18905;SDS011;9585;51.018;4.282;2023-07-29T11:15:59;1.83;;;1.30;;
18905;SDS011;9585;51.018;4.282;2023-07-29T11:18:27;1.58;;;1.33;;
18905;SDS011;9585;51.018;4.282;2023-07-29T11:20:56;1.15;;;1.05;;
18905;SDS011;9585;51.018;4.282;2023-07-29T11:23:30;2.63;;;1.50;;
18905;SDS011;9585;51.018;4.282;2023-07-29T11:26:02;1.60;;;1.50;;
18905;SDS011;9585;51.018;4.282;2023-07-29T11:28:37;1.70;;;1.30;;
18905;SDS011;9585;51.018;4.282;2023-07-29T11:31:09;1.70;;;1.00;;
18905;SDS011;9585;51.018;4.282;2023-07-29T11:33:40;1.95;;;1.00;;
18905;SDS011;9585;51.018;4.282;2023-07-29T11:36:19;1.85;;;1.00;;
18905;SDS011;9585;51.018;4.282;2023-07-29T11:38:57;1.23;;;0.93;;
18905;SDS011;9585;51.018;4.282;2023-07-29T11:41:25;1.33;;;0.82;;
18905;SDS011;9585;51.018;4.282;2023-07-29T11:43:53;1.40;;;0.80;;
18905;SDS011;9585;51.018;4.282;2023-07-29T11:46:22;1.92;;;0.77;;
18905;SDS011;9585;51.018;4.282;2023-07-29T11:48:50;1.85;;;0.77;;
18905;SDS011;9585;51.018;4.282;2023-07-29T11:51:23;1.08;;;0.80;;
18905;SDS011;9585;51.018;4.282;2023-07-29T11:53:55;1.60;;;0.80;;
18905;SDS011;9585;51.018;4.282;2023-07-29T11:56:24;1.30;;;1.00;;
18905;SDS011;9585;51.018;4.282;2023-07-29T11:58:55;1.50;;;1.10;;
18905;SDS011;9585;51.018;4.282;2023-07-29T12:01:24;1.67;;;0.90;;
18905;SDS011;9585;51.018;4.282;2023-07-29T12:03:52;1.00;;;0.90;;
18905;SDS011;9585;51.018;4.282;2023-07-29T12:06:20;0.93;;;0.80;;
18905;SDS011;9585;51.018;4.282;2023-07-29T12:08:53;1.35;;;0.90;;
18905;SDS011;9585;51.018;4.282;2023-07-29T12:11:26;1.00;;;0.80;;
18905;SDS011;9585;51.018;4.282;2023-07-29T12:13:54;2.33;;;0.90;;
18905;SDS011;9585;51.018;4.282;2023-07-29T12:16:24;1.55;;;0.80;;
18905;SDS011;9585;51.018;4.282;2023-07-29T12:18:59;1.60;;;0.90;;
18905;SDS011;9585;51.018;4.282;2023-07-29T12:21:28;1.05;;;0.80;;
18905;SDS011;9585;51.018;4.282;2023-07-29T12:23:59;1.30;;;0.90;;
18905;SDS011;9585;51.018;4.282;2023-07-29T12:26:33;1.65;;;0.80;;
18905;SDS011;9585;51.018;4.282;2023-07-29T12:29:11;1.10;;;1.00;;
18905;SDS011;9585;51.018;4.282;2023-07-29T12:31:39;0.80;;;0.80;;
18905;SDS011;9585;51.018;4.282;2023-07-29T12:34:07;1.73;;;1.00;;
18905;SDS011;9585;51.018;4.282;2023-07-29T12:36:41;1.35;;;1.00;;
18905;SDS011;9585;51.018;4.282;2023-07-29T12:39:17;1.15;;;1.00;;
18905;SDS011;9585;51.018;4.282;2023-07-29T12:41:49;0.98;;;0.98;;
18905;SDS011;9585;51.018;4.282;2023-07-29T12:44:21;1.45;;;0.90;;
18905;SDS011;9585;51.018;4.282;2023-07-29T12:46:53;1.45;;;1.00;;
18905;SDS011;9585;51.018;4.282;2023-07-29T12:49:21;1.02;;;0.70;;
18905;SDS011;9585;51.018;4.282;2023-07-29T12:51:49;0.80;;;0.70;;
18905;SDS011;9585;51.018;4.282;2023-07-29T12:54:17;0.82;;;0.80;;
18905;SDS011;9585;51.018;4.282;2023-07-29T12:56:44;0.90;;;0.90;;
18905;SDS011;9585;51.018;4.282;2023-07-29T12:59:14;1.92;;;1.00;;
18905;SDS011;9585;51.018;4.282;2023-07-29T13:01:42;1.02;;;0.85;;
18905;SDS011;9585;51.018;4.282;2023-07-29T13:04:13;1.17;;;0.90;;
18905;SDS011;9585;51.018;4.282;2023-07-29T13:06:41;0.95;;;0.70;;
18905;SDS011;9585;51.018;4.282;2023-07-29T13:09:13;1.10;;;0.88;;
18905;SDS011;9585;51.018;4.282;2023-07-29T13:11:41;1.15;;;1.05;;
18905;SDS011;9585;51.018;4.282;2023-07-29T13:14:09;1.38;;;1.00;;
18905;SDS011;9585;51.018;4.282;2023-07-29T13:16:39;1.10;;;1.00;;
18905;SDS011;9585;51.018;4.282;2023-07-29T13:19:09;1.00;;;0.88;;
18905;SDS011;9585;51.018;4.282;2023-07-29T13:21:36;0.73;;;0.70;;
18905;SDS011;9585;51.018;4.282;2023-07-29T13:24:04;0.98;;;0.70;;
18905;SDS011;9585;51.018;4.282;2023-07-29T13:26:32;0.82;;;0.80;;
18905;SDS011;9585;51.018;4.282;2023-07-29T13:29:01;0.95;;;0.90;;
18905;SDS011;9585;51.018;4.282;2023-07-29T13:31:29;1.42;;;1.02;;
18905;SDS011;9585;51.018;4.282;2023-07-29T13:33:59;0.90;;;0.90;;
18905;SDS011;9585;51.018;4.282;2023-07-29T13:36:28;0.90;;;0.90;;
18905;SDS011;9585;51.018;4.282;2023-07-29T13:38:56;0.82;;;0.77;;
18905;SDS011;9585;51.018;4.282;2023-07-29T13:41:24;0.80;;;0.80;;
18905;SDS011;9585;51.018;4.282;2023-07-29T13:43:53;0.70;;;0.70;;
18905;SDS011;9585;51.018;4.282;2023-07-29T13:46:22;0.85;;;0.80;;
18905;SDS011;9585;51.018;4.282;2023-07-29T13:48:50;0.80;;;0.80;;
18905;SDS011;9585;51.018;4.282;2023-07-29T13:51:20;0.80;;;0.80;;
18905;SDS011;9585;51.018;4.282;2023-07-29T13:53:49;1.35;;;0.80;;
18905;SDS011;9585;51.018;4.282;2023-07-29T13:56:19;1.00;;;0.90;;
18905;SDS011;9585;51.018;4.282;2023-07-29T13:58:47;1.00;;;1.00;;
18905;SDS011;9585;51.018;4.282;2023-07-29T14:01:17;1.30;;;0.90;;
18905;SDS011;9585;51.018;4.282;2023-07-29T14:03:45;0.80;;;0.80;;
18905;SDS011;9585;51.018;4.282;2023-07-29T14:06:13;1.17;;;0.80;;
18905;SDS011;9585;51.018;4.282;2023-07-29T14:08:42;1.15;;;0.90;;
18905;SDS011;9585;51.018;4.282;2023-07-29T14:11:11;1.00;;;1.00;;
18905;SDS011;9585;51.018;4.282;2023-07-29T14:13:45;1.15;;;1.05;;
18905;SDS011;9585;51.018;4.282;2023-07-29T14:16:16;1.08;;;0.98;;
18905;SDS011;9585;51.018;4.282;2023-07-29T14:18:45;1.35;;;0.93;;
18905;SDS011;9585;51.018;4.282;2023-07-29T14:21:16;1.45;;;1.10;;
18905;SDS011;9585;51.018;4.282;2023-07-29T14:23:48;1.20;;;1.10;;
18905;SDS011;9585;51.018;4.282;2023-07-29T14:26:16;2.03;;;1.70;;
18905;SDS011;9585;51.018;4.282;2023-07-29T14:28:43;1.95;;;1.75;;
18905;SDS011;9585;51.018;4.282;2023-07-29T14:31:11;1.83;;;1.65;;
18905;SDS011;9585;51.018;4.282;2023-07-29T14:33:39;2.90;;;1.52;;
18905;SDS011;9585;51.018;4.282;2023-07-29T14:36:07;1.45;;;1.35;;
18905;SDS011;9585;51.018;4.282;2023-07-29T14:38:35;1.80;;;1.20;;
18905;SDS011;9585;51.018;4.282;2023-07-29T14:41:08;3.35;;;1.58;;
18905;SDS011;9585;51.018;4.282;2023-07-29T14:43:37;5.32;;;2.20;;
18905;SDS011;9585;51.018;4.282;2023-07-29T14:46:05;2.45;;;1.40;;
18905;SDS011;9585;51.018;4.282;2023-07-29T14:48:33;1.70;;;1.60;;
18905;SDS011;9585;51.018;4.282;2023-07-29T14:51:03;1.70;;;1.45;;
18905;SDS011;9585;51.018;4.282;2023-07-29T14:53:35;1.90;;;1.20;;
18905;SDS011;9585;51.018;4.282;2023-07-29T14:56:16;1.65;;;1.30;;
18905;SDS011;9585;51.018;4.282;2023-07-29T14:58:50;2.72;;;1.70;;
18905;SDS011;9585;51.018;4.282;2023-07-29T15:01:19;2.10;;;1.40;;
18905;SDS011;9585;51.018;4.282;2023-07-29T15:03:50;2.53;;;1.40;;
18905;SDS011;9585;51.018;4.282;2023-07-29T15:06:21;1.50;;;1.40;;
18905;SDS011;9585;51.018;4.282;2023-07-29T15:08:49;1.83;;;1.48;;
18905;SDS011;9585;51.018;4.282;2023-07-29T15:11:19;3.10;;;1.70;;
18905;SDS011;9585;51.018;4.282;2023-07-29T15:13:47;2.05;;;1.40;;
18905;SDS011;9585;51.018;4.282;2023-07-29T15:16:17;1.70;;;1.60;;